createdAt,value
2023-02-17T00:00:36.397Z,100190.00
2023-02-17T00:01:38.669Z,100195.88
2023-02-17T00:02:40.984Z,100196.75
2023-02-17T00:03:43.267Z,100193.28
2023-02-17T00:04:45.497Z,100196.91
2023-02-17T00:05:49.406Z,100203.97
2023-02-17T00:06:53.340Z,100201.34
2023-02-17T00:07:55.598Z,100195.16
2023-02-17T00:08:59.650Z,100190.97
2023-02-17T00:10:02.100Z,100196.13
2023-02-17T00:11:04.613Z,100195.06
2023-02-17T00:12:07.401Z,100193.25
2023-02-17T00:13:09.830Z,100194.16
2023-02-17T00:14:13.383Z,100183.66
2023-02-17T00:15:15.579Z,100183.38
2023-02-17T00:16:21.271Z,100199.19
2023-02-17T00:17:23.530Z,100197.34
2023-02-17T00:18:25.934Z,100189.19
2023-02-17T00:19:28.244Z,100192.47
2023-02-17T00:20:30.567Z,100193.56
2023-02-17T00:21:32.795Z,100187.34
2023-02-17T00:22:35.962Z,100188.28
2023-02-17T00:23:38.150Z,100190.13
2023-02-17T00:24:41.341Z,100184.06
2023-02-17T00:25:44.097Z,100186.56
2023-02-17T00:26:46.504Z,100183.84
2023-02-17T00:27:48.741Z,100180.44
2023-02-17T00:28:51.073Z,100186.41
2023-02-17T00:29:53.263Z,100185.69
2023-02-17T00:30:55.577Z,100183.13
2023-02-17T00:31:57.930Z,100178.53
2023-02-17T00:33:00.282Z,100186.34
2023-02-17T00:34:02.492Z,100176.69
2023-02-17T00:35:06.665Z,100183.44
2023-02-17T00:36:18.396Z,100178.41
2023-02-17T00:37:20.761Z,100172.53
2023-02-17T00:38:23.007Z,100173.66
2023-02-17T00:39:25.646Z,100166.72
2023-02-17T00:40:28.329Z,100171.84
2023-02-17T00:41:30.937Z,100175.88
2023-02-17T00:42:33.143Z,100174.25
2023-02-17T00:43:35.483Z,100169.94
2023-02-17T00:44:37.694Z,100175.97
2023-02-17T00:45:39.856Z,100173.06
2023-02-17T00:46:42.131Z,100177.53
2023-02-17T00:47:44.502Z,100177.53
2023-02-17T00:48:48.068Z,100183.59
2023-02-17T00:49:50.335Z,100181.03
2023-02-17T00:50:52.668Z,100179.44
2023-02-17T00:51:54.932Z,100181.28
2023-02-17T00:52:57.097Z,100182.84
2023-02-17T00:53:59.292Z,100181.09
2023-02-17T00:55:01.595Z,100180.44
2023-02-17T00:56:05.566Z,100185.75
2023-02-17T00:57:07.902Z,100177.00
2023-02-17T00:58:10.520Z,100184.97
2023-02-17T00:59:13.239Z,100178.88
2023-02-17T01:00:16.413Z,100179.63
2023-02-17T01:01:18.755Z,100184.78
2023-02-17T01:02:21.264Z,100178.66
2023-02-17T01:03:24.470Z,100184.66
2023-02-17T01:04:27.023Z,100187.34
2023-02-17T01:05:29.410Z,100184.22
2023-02-17T01:06:34.404Z,100190.59
2023-02-17T01:07:37.232Z,100185.53
2023-02-17T01:08:39.443Z,100189.19
2023-02-17T01:09:41.700Z,100185.66
2023-02-17T01:10:46.297Z,100186.41
2023-02-17T01:11:48.595Z,100198.88
2023-02-17T01:12:51.001Z,100195.25
2023-02-17T01:13:54.304Z,100194.50
2023-02-17T01:14:56.566Z,100186.94
2023-02-17T01:15:59.304Z,100190.38
2023-02-17T01:17:01.711Z,100189.47
2023-02-17T01:18:04.428Z,100182.41
2023-02-17T01:19:09.445Z,100180.44
2023-02-17T01:20:12.626Z,100179.41
2023-02-17T01:21:23.645Z,100170.81
2023-02-17T01:22:25.900Z,100174.59
2023-02-17T01:23:30.154Z,100166.75
2023-02-17T01:24:32.407Z,100174.56
2023-02-17T01:25:42.786Z,100177.38
2023-02-17T01:26:45.275Z,100170.59
2023-02-17T01:27:47.543Z,100167.25
2023-02-17T01:28:50.939Z,100169.84
2023-02-17T01:29:53.195Z,100167.56
2023-02-17T01:30:55.554Z,100169.50
2023-02-17T01:31:57.861Z,100169.16
2023-02-17T01:33:02.722Z,100174.16
2023-02-17T01:34:05.009Z,100180.09
2023-02-17T01:35:07.568Z,100172.81
2023-02-17T01:36:13.620Z,100175.25
2023-02-17T01:37:15.886Z,100166.88
2023-02-17T01:38:18.036Z,100170.63
2023-02-17T01:39:20.283Z,100173.25
2023-02-17T01:40:22.796Z,100169.66
2023-02-17T01:41:27.091Z,100174.84
2023-02-17T01:42:29.338Z,100170.53
2023-02-17T01:43:31.715Z,100167.25
2023-02-17T01:44:33.971Z,100167.72
2023-02-17T01:45:50.470Z,100158.31
2023-02-17T01:46:56.195Z,100160.84
2023-02-17T01:48:14.330Z,100170.53
2023-02-17T01:49:22.459Z,100166.44
2023-02-17T01:50:46.862Z,100160.34
2023-02-17T01:51:54.664Z,100161.34
2023-02-17T01:52:58.389Z,100163.13
2023-02-17T01:54:06.152Z,100158.53
2023-02-17T01:55:13.038Z,100160.84
2023-02-17T01:56:17.278Z,100160.28
2023-02-17T01:57:23.286Z,100155.09
2023-02-17T01:58:26.882Z,100162.75
2023-02-17T01:59:30.819Z,100171.47
2023-02-17T02:02:08.873Z,100154.38
2023-02-17T02:03:13.917Z,100160.09
2023-02-17T02:04:20.671Z,100164.31
2023-02-17T02:05:23.180Z,100157.53
2023-02-17T02:06:28.822Z,100159.19
2023-02-17T02:07:34.858Z,100171.66
2023-02-17T02:08:54.777Z,100159.56
2023-02-17T02:09:59.117Z,100163.75
2023-02-17T02:11:02.464Z,100169.03
2023-02-17T02:12:17.814Z,100161.84
2023-02-17T02:13:21.218Z,100159.50
2023-02-17T02:14:23.551Z,100150.69
2023-02-17T02:15:32.342Z,100161.81
2023-02-17T02:16:34.593Z,100150.22
2023-02-17T02:18:03.856Z,100157.25
2023-02-17T02:19:43.570Z,100150.25
2023-02-17T02:21:08.550Z,100146.81
2023-02-17T02:22:32.210Z,100146.81
2023-02-17T02:23:49.787Z,100154.63
2023-02-17T02:25:18.032Z,100143.63
2023-02-17T02:26:48.556Z,100150.28
2023-02-17T02:28:19.262Z,100151.13
2023-02-17T02:29:51.542Z,100140.63
2023-02-17T02:31:08.720Z,100143.47
2023-02-17T02:32:39.297Z,100141.59
2023-02-17T02:34:08.970Z,100140.50
2023-02-17T02:35:43.489Z,100140.38
2023-02-17T02:36:56.554Z,100135.44
2023-02-17T02:38:19.922Z,100133.72
2023-02-17T02:39:27.936Z,100116.31
2023-02-17T02:40:36.354Z,100119.78
2023-02-17T02:41:44.028Z,100125.63
2023-02-17T02:42:49.481Z,100116.22
2023-02-17T02:43:52.281Z,100120.94
2023-02-17T02:44:54.573Z,100113.72
2023-02-17T02:45:56.806Z,100113.53
2023-02-17T02:47:18.692Z,100110.06
2023-02-17T02:48:21.064Z,100116.13
2023-02-17T02:49:23.650Z,100107.47
2023-02-17T02:50:47.920Z,100104.94
2023-02-17T02:52:26.692Z,100105.88
2023-02-17T02:53:48.219Z,100108.31
2023-02-17T02:55:05.222Z,100111.28
2023-02-17T02:56:38.788Z,100117.66
2023-02-17T02:57:49.288Z,100117.75
2023-02-17T02:58:57.483Z,100114.16
2023-02-17T03:00:24.728Z,100115.72
2023-02-17T03:01:50.557Z,100123.56
2023-02-17T03:03:04.381Z,100113.84
2023-02-17T03:04:14.295Z,100118.16
2023-02-17T03:05:28.949Z,100114.13
2023-02-17T03:06:51.666Z,100105.28
2023-02-17T03:08:03.678Z,100113.78
2023-02-17T03:09:14.333Z,100106.63
2023-02-17T03:10:17.144Z,100108.81
2023-02-17T03:11:32.347Z,100113.25
2023-02-17T03:12:38.402Z,100109.00
2023-02-17T03:13:41.203Z,100112.50
2023-02-17T03:14:49.509Z,100121.47
2023-02-17T03:15:52.729Z,100114.13
2023-02-17T03:16:55.439Z,100114.41
2023-02-17T03:18:01.217Z,100115.22
2023-02-17T03:19:04.577Z,100108.41
2023-02-17T03:20:08.392Z,100101.44
2023-02-17T03:21:17.222Z,100100.56
2023-02-17T03:22:31.660Z,100105.75
2023-02-17T03:23:33.911Z,100106.69
2023-02-17T03:24:36.880Z,100109.41
2023-02-17T03:25:41.953Z,100108.50
2023-02-17T03:26:44.190Z,100115.72
2023-02-17T03:27:46.517Z,100110.38
2023-02-17T03:28:50.096Z,100105.03
2023-02-17T03:29:52.661Z,100106.00
2023-02-17T03:30:56.062Z,100106.97
2023-02-17T03:31:58.380Z,100105.28
2023-02-17T03:33:00.639Z,100110.97
2023-02-17T03:34:03.567Z,100112.94
2023-02-17T03:35:05.943Z,100105.81
2023-02-17T03:36:08.485Z,100105.03
2023-02-17T03:37:10.717Z,100112.00
2023-02-17T03:38:12.999Z,100111.69
2023-02-17T03:39:15.295Z,100113.81
2023-02-17T03:40:17.652Z,100117.38
2023-02-17T03:41:20.155Z,100108.41
2023-02-17T03:42:22.752Z,100106.75
2023-02-17T03:43:24.949Z,100109.56
2023-02-17T03:44:27.204Z,100108.81
2023-02-17T03:45:29.527Z,100115.75
2023-02-17T03:46:31.849Z,100106.06
2023-02-17T03:47:34.044Z,100108.72
2023-02-17T03:48:36.228Z,100115.59
2023-02-17T03:49:38.453Z,100102.59
2023-02-17T03:50:40.767Z,100108.63
2023-02-17T03:51:42.972Z,100112.22
2023-02-17T03:52:45.922Z,100110.47
2023-02-17T03:53:49.032Z,100114.75
2023-02-17T03:54:52.549Z,100112.00
2023-02-17T03:55:54.872Z,100107.59
2023-02-17T03:56:57.131Z,100110.94
2023-02-17T03:57:59.536Z,100099.84
2023-02-17T03:59:01.707Z,100111.81
2023-02-17T04:00:05.837Z,100112.03
2023-02-17T04:01:15.334Z,100108.59
2023-02-17T04:02:17.563Z,100104.44
2023-02-17T04:03:19.748Z,100099.91
2023-02-17T04:04:22.039Z,100105.16
2023-02-17T04:05:24.627Z,100106.72
2023-02-17T04:06:27.236Z,100111.13
2023-02-17T04:07:29.549Z,100105.94
2023-02-17T04:08:32.544Z,100107.03
2023-02-17T04:09:34.732Z,100105.41
2023-02-17T04:10:37.140Z,100104.69
2023-02-17T04:11:39.417Z,100093.34
2023-02-17T04:12:41.587Z,100108.13
2023-02-17T04:13:43.823Z,100100.19
2023-02-17T04:14:46.160Z,100098.69
2023-02-17T04:15:48.962Z,100107.22
2023-02-17T04:16:51.258Z,100093.34
2023-02-17T04:17:53.473Z,100109.88
2023-02-17T04:18:55.722Z,100100.22
2023-02-17T04:19:57.978Z,100094.25
2023-02-17T04:21:00.316Z,100098.53
2023-02-17T04:22:02.547Z,100102.13
2023-02-17T04:23:04.948Z,100097.59
2023-02-17T04:24:07.157Z,100103.06
2023-02-17T04:25:09.508Z,100088.22
2023-02-17T04:26:11.758Z,100095.88
2023-02-17T04:27:14.031Z,100083.78
2023-02-17T04:28:17.060Z,100100.47
2023-02-17T04:29:19.270Z,100101.25
2023-02-17T04:30:21.678Z,100098.50
2023-02-17T04:31:25.880Z,100102.69
2023-02-17T04:32:28.355Z,100101.13
2023-02-17T04:33:30.907Z,100094.22
2023-02-17T04:34:33.127Z,100095.78
2023-02-17T04:35:35.501Z,100092.31
2023-02-17T04:36:37.773Z,100095.69
2023-02-17T04:37:40.016Z,100092.13
2023-02-17T04:38:42.357Z,100100.00
2023-02-17T04:39:44.630Z,100097.44
2023-02-17T04:40:46.984Z,100106.19
2023-02-17T04:41:49.346Z,100108.69
2023-02-17T04:42:51.574Z,100105.41
2023-02-17T04:43:53.831Z,100098.63
2023-02-17T04:44:56.018Z,100103.78
2023-02-17T04:45:58.531Z,100106.97
2023-02-17T04:47:00.750Z,100098.81
2023-02-17T04:48:03.007Z,100098.69
2023-02-17T04:49:05.224Z,100105.06
2023-02-17T04:50:09.977Z,100108.63
2023-02-17T04:51:12.161Z,100110.31
2023-02-17T04:52:14.345Z,100091.13
2023-02-17T04:53:16.683Z,100092.03
2023-02-17T04:54:18.922Z,100104.91
2023-02-17T04:55:21.199Z,100108.41
2023-02-17T04:56:23.581Z,100110.31
2023-02-17T04:57:26.278Z,100106.94
2023-02-17T04:58:28.603Z,100105.75
2023-02-17T04:59:30.766Z,100114.50
2023-02-17T05:00:33.156Z,100118.72
2023-02-17T05:01:35.390Z,100118.91
2023-02-17T05:02:37.634Z,100118.88
2023-02-17T05:03:40.078Z,100123.41
2023-02-17T05:04:43.974Z,100115.50
2023-02-17T05:05:47.930Z,100118.03
2023-02-17T05:06:50.314Z,100128.53
2023-02-17T05:07:52.511Z,100122.91
2023-02-17T05:08:54.856Z,100114.63
2023-02-17T05:09:57.073Z,100124.97
2023-02-17T05:10:59.295Z,100116.19
2023-02-17T05:12:03.029Z,100121.66
2023-02-17T05:13:05.259Z,100118.16
2023-02-17T05:14:07.582Z,100114.44
2023-02-17T05:15:10.508Z,100122.31
2023-02-17T05:16:12.880Z,100123.47
2023-02-17T05:17:15.239Z,100125.25
2023-02-17T05:18:17.435Z,100123.56
2023-02-17T05:19:19.717Z,100124.78
2023-02-17T05:20:22.028Z,100117.53
2023-02-17T05:21:24.348Z,100120.09
2023-02-17T05:22:27.361Z,100124.72
2023-02-17T05:23:29.552Z,100120.16
2023-02-17T05:24:31.984Z,100122.03
2023-02-17T05:25:34.181Z,100116.78
2023-02-17T05:26:36.380Z,100125.59
2023-02-17T05:27:38.554Z,100123.13
2023-02-17T05:28:40.771Z,100120.47
2023-02-17T05:29:42.970Z,100121.34
2023-02-17T05:30:45.165Z,100122.16
2023-02-17T05:31:47.437Z,100116.94
2023-02-17T05:32:49.730Z,100117.16
2023-02-17T05:33:54.022Z,100123.06
2023-02-17T05:34:56.158Z,100121.34
2023-02-17T05:36:03.660Z,100115.50
2023-02-17T05:37:05.954Z,100118.06
2023-02-17T05:38:08.233Z,100118.78
2023-02-17T05:39:10.540Z,100122.31
2023-02-17T05:40:13.028Z,100122.91
2023-02-17T05:41:18.788Z,100113.09
2023-02-17T05:42:21.154Z,100121.72
2023-02-17T05:43:23.742Z,100125.53
2023-02-17T05:44:25.972Z,100127.25
2023-02-17T05:45:28.256Z,100121.16
2023-02-17T05:46:30.527Z,100128.13
2023-02-17T05:47:32.770Z,100127.22
2023-02-17T05:48:35.054Z,100124.72
2023-02-17T05:49:37.399Z,100129.00
2023-02-17T05:50:39.564Z,100116.03
2023-02-17T05:51:41.816Z,100123.03
2023-02-17T05:52:44.095Z,100124.78
2023-02-17T05:53:46.285Z,100127.28
2023-02-17T05:54:48.455Z,100125.59
2023-02-17T05:55:51.500Z,100136.78
2023-02-17T05:56:54.960Z,100133.50
2023-02-17T05:57:57.174Z,100129.84
2023-02-17T05:59:00.453Z,100134.56
2023-02-17T06:00:04.352Z,100136.47
2023-02-17T06:01:14.341Z,100137.25
2023-02-17T06:02:16.572Z,100138.75
2023-02-17T06:03:19.196Z,100136.91
2023-02-17T06:04:21.893Z,100144.13
2023-02-17T06:05:24.165Z,100141.56
2023-02-17T06:06:26.516Z,100136.41
2023-02-17T06:07:28.759Z,100144.19
2023-02-17T06:08:31.217Z,100141.06
2023-02-17T06:09:33.439Z,100149.19
2023-02-17T06:10:37.467Z,100146.63
2023-02-17T06:11:42.008Z,100144.13
2023-02-17T06:12:44.216Z,100144.16
2023-02-17T06:13:46.493Z,100142.59
2023-02-17T06:14:48.699Z,100156.28
2023-02-17T06:15:51.327Z,100142.47
2023-02-17T06:16:55.799Z,100146.06
2023-02-17T06:17:58.090Z,100146.03
2023-02-17T06:19:05.073Z,100143.50
2023-02-17T06:20:10.526Z,100141.81
2023-02-17T06:21:12.786Z,100143.44
2023-02-17T06:22:17.219Z,100145.78
2023-02-17T06:23:20.565Z,100148.38
2023-02-17T06:24:23.306Z,100145.03
2023-02-17T06:25:25.473Z,100152.88
2023-02-17T06:26:27.689Z,100153.94
2023-02-17T06:27:29.962Z,100148.63
2023-02-17T06:28:34.763Z,100142.44
2023-02-17T06:29:37.258Z,100157.44
2023-02-17T06:30:39.516Z,100150.41
2023-02-17T06:31:41.775Z,100148.69
2023-02-17T06:32:44.256Z,100149.22
2023-02-17T06:33:46.655Z,100142.28
2023-02-17T06:34:48.868Z,100148.38
2023-02-17T06:35:51.912Z,100150.38
2023-02-17T06:36:54.627Z,100146.09
2023-02-17T06:37:57.069Z,100162.50
2023-02-17T06:38:59.273Z,100156.03
2023-02-17T06:40:01.719Z,100151.97
2023-02-17T06:41:04.211Z,100157.16
2023-02-17T06:42:06.467Z,100152.69
2023-02-17T06:43:08.759Z,100146.63
2023-02-17T06:44:11.210Z,100148.59
2023-02-17T06:45:13.530Z,100151.16
2023-02-17T06:46:15.737Z,100155.47
2023-02-17T06:47:17.963Z,100150.22
2023-02-17T06:48:20.155Z,100146.81
2023-02-17T06:49:22.470Z,100155.50
2023-02-17T06:50:24.712Z,100155.44
2023-02-17T06:51:28.169Z,100156.16
2023-02-17T06:52:30.577Z,100156.69
2023-02-17T06:53:32.773Z,100154.25
2023-02-17T06:54:35.042Z,100161.38
2023-02-17T06:55:38.958Z,100156.19
2023-02-17T06:56:41.215Z,100157.09
2023-02-17T06:57:43.515Z,100157.19
2023-02-17T06:58:45.756Z,100168.66
2023-02-17T06:59:47.951Z,100162.59
2023-02-17T07:00:51.009Z,100171.38
2023-02-17T07:01:53.324Z,100173.97
2023-02-17T07:02:55.742Z,100174.00
2023-02-17T07:03:58.047Z,100178.38
2023-02-17T07:05:00.245Z,100180.78
2023-02-17T07:06:02.440Z,100191.00
2023-02-17T07:07:04.997Z,100170.19
2023-02-17T07:08:07.244Z,100182.47
2023-02-17T07:09:13.381Z,100188.06
2023-02-17T07:10:15.669Z,100190.50
2023-02-17T07:11:18.294Z,100180.75
2023-02-17T07:12:20.496Z,100180.03
2023-02-17T07:13:22.682Z,100182.75
2023-02-17T07:14:26.381Z,100187.06
2023-02-17T07:15:28.713Z,100175.72
2023-02-17T07:16:31.176Z,100178.56
2023-02-17T07:17:33.400Z,100183.66
2023-02-17T07:18:36.385Z,100182.03
2023-02-17T07:19:38.597Z,100185.44
2023-02-17T07:20:40.903Z,100181.94
2023-02-17T07:21:44.055Z,100176.69
2023-02-17T07:22:46.463Z,100181.81
2023-02-17T07:23:48.894Z,100175.63
2023-02-17T07:24:51.258Z,100183.38
2023-02-17T07:25:53.464Z,100180.00
2023-02-17T07:26:56.233Z,100174.28
2023-02-17T07:27:59.727Z,100166.47
2023-02-17T07:29:02.090Z,100172.47
2023-02-17T07:30:05.643Z,100177.06
2023-02-17T07:31:13.304Z,100175.31
2023-02-17T07:32:15.565Z,100181.06
2023-02-17T07:33:17.821Z,100181.00
2023-02-17T07:34:20.197Z,100191.28
2023-02-17T07:35:22.373Z,100182.72
2023-02-17T07:36:24.682Z,100185.41
2023-02-17T07:37:26.913Z,100196.88
2023-02-17T07:38:29.214Z,100198.41
2023-02-17T07:39:31.493Z,100199.38
2023-02-17T07:40:34.068Z,100192.50
2023-02-17T07:41:36.334Z,100184.69
2023-02-17T07:42:44.252Z,100195.00
2023-02-17T07:43:47.903Z,100188.91
2023-02-17T07:44:52.066Z,100195.78
2023-02-17T07:45:54.963Z,100203.50
2023-02-17T07:46:57.793Z,100197.63
2023-02-17T07:48:00.040Z,100204.38
2023-02-17T07:49:02.500Z,100200.06
2023-02-17T07:50:05.614Z,100198.41
2023-02-17T07:51:10.758Z,100187.00
2023-02-17T07:52:13.046Z,100191.00
2023-02-17T07:53:15.228Z,100199.56
2023-02-17T07:54:18.834Z,100190.91
2023-02-17T07:55:20.990Z,100196.22
2023-02-17T07:56:24.103Z,100181.31
2023-02-17T07:57:26.395Z,100189.97
2023-02-17T07:58:28.621Z,100193.34
2023-02-17T07:59:30.803Z,100207.09
2023-02-17T08:00:32.994Z,100198.47
2023-02-17T08:01:35.203Z,100203.13
2023-02-17T08:02:37.454Z,100196.59
2023-02-17T08:03:39.665Z,100211.22
2023-02-17T08:04:42.514Z,100211.22
2023-02-17T08:05:44.781Z,100205.25
2023-02-17T08:06:46.971Z,100212.44
2023-02-17T08:08:09.285Z,100202.16
2023-02-17T08:09:30.296Z,100206.63
2023-02-17T08:10:51.367Z,100208.88
2023-02-17T08:12:12.015Z,100214.25
2023-02-17T08:13:19.944Z,100200.78
2023-02-17T08:14:23.594Z,100201.47
2023-02-17T08:15:25.810Z,100209.97
2023-02-17T08:16:28.312Z,100203.03
2023-02-17T08:17:30.568Z,100209.41
2023-02-17T08:18:36.501Z,100206.91
2023-02-17T08:19:48.065Z,100209.97
2023-02-17T08:20:51.437Z,100200.63
2023-02-17T08:21:54.029Z,100205.25
2023-02-17T08:22:56.234Z,100213.81
2023-02-17T08:23:58.534Z,100207.03
2023-02-17T08:25:00.823Z,100213.97
2023-02-17T08:26:03.031Z,100210.41
2023-02-17T08:27:06.171Z,100195.66
2023-02-17T08:28:08.385Z,100187.97
2023-02-17T08:29:10.728Z,100207.28
2023-02-17T08:30:13.369Z,100203.75
2023-02-17T08:31:21.486Z,100208.97
2023-02-17T08:32:24.058Z,100201.69
2023-02-17T08:33:26.302Z,100194.03
2023-02-17T08:34:28.742Z,100193.88
2023-02-17T08:35:31.167Z,100193.81
2023-02-17T08:36:34.045Z,100182.66
2023-02-17T08:37:36.255Z,100205.25
2023-02-17T08:38:39.404Z,100203.63
2023-02-17T08:39:41.661Z,100206.31
2023-02-17T08:40:43.960Z,100192.09
2023-02-17T08:41:46.746Z,100202.34
2023-02-17T08:42:49.014Z,100200.88
2023-02-17T08:43:52.074Z,100195.59
2023-02-17T08:44:54.880Z,100197.81
2023-02-17T08:45:57.210Z,100195.53
2023-02-17T08:46:59.507Z,100198.75
2023-02-17T08:48:01.819Z,100201.53
2023-02-17T08:49:05.605Z,100207.63
2023-02-17T08:50:09.375Z,100196.06
2023-02-17T08:51:16.191Z,100198.88
2023-02-17T08:52:18.875Z,100193.41
2023-02-17T08:53:21.146Z,100193.94
2023-02-17T08:54:23.426Z,100191.84
2023-02-17T08:55:25.774Z,100174.94
2023-02-17T08:56:28.592Z,100164.34
2023-02-17T08:57:30.807Z,100185.31
2023-02-17T08:58:33.380Z,100183.13
2023-02-17T08:59:35.592Z,100185.03
2023-02-17T09:00:37.797Z,100170.00
2023-02-17T09:01:41.150Z,100181.31
2023-02-17T09:02:45.135Z,100183.38
2023-02-17T09:03:49.875Z,100181.31
2023-02-17T09:04:52.262Z,100170.84
2023-02-17T09:05:58.147Z,100164.81
2023-02-17T09:07:00.514Z,100165.53
2023-02-17T09:08:03.990Z,100163.16
2023-02-17T09:09:08.004Z,100182.84
2023-02-17T09:10:11.629Z,100196.00
2023-02-17T09:11:17.010Z,100188.53
2023-02-17T09:12:19.293Z,100187.66
2023-02-17T09:13:21.907Z,100204.47
2023-02-17T09:14:25.250Z,100197.44
2023-02-17T09:15:27.894Z,100203.06
2023-02-17T09:16:30.839Z,100208.28
2023-02-17T09:17:33.441Z,100210.91
2023-02-17T09:18:36.313Z,100202.78
2023-02-17T09:19:40.923Z,100209.84
2023-02-17T09:20:43.533Z,100200.59
2023-02-17T09:21:46.281Z,100196.44
2023-02-17T09:22:50.364Z,100204.56
2023-02-17T09:23:54.073Z,100206.97
2023-02-17T09:24:57.014Z,100210.03
2023-02-17T09:26:11.070Z,100219.91
2023-02-17T09:27:14.198Z,100220.72
2023-02-17T09:28:17.098Z,100224.19
2023-02-17T09:29:19.638Z,100221.34
2023-02-17T09:30:22.192Z,100232.50
2023-02-17T09:31:26.754Z,100231.22
2023-02-17T09:32:29.446Z,100236.13
2023-02-17T09:33:31.894Z,100233.56
2023-02-17T09:34:37.348Z,100236.22
2023-02-17T09:35:39.588Z,100239.47
2023-02-17T09:36:42.416Z,100237.31
2023-02-17T09:37:44.891Z,100225.34
2023-02-17T09:38:48.672Z,100231.16
2023-02-17T09:39:51.017Z,100217.91
2023-02-17T09:40:53.308Z,100217.41
2023-02-17T09:41:56.562Z,100206.19
2023-02-17T09:42:59.025Z,100222.31
2023-02-17T09:44:01.957Z,100220.06
2023-02-17T09:45:14.400Z,100222.75
2023-02-17T09:46:24.463Z,100216.88
2023-02-17T09:47:36.204Z,100223.00
2023-02-17T09:48:41.344Z,100222.44
2023-02-17T09:49:48.065Z,100213.09
2023-02-17T09:51:10.049Z,100204.72
2023-02-17T09:52:35.958Z,100196.56
2023-02-17T09:53:52.406Z,100204.72
2023-02-17T09:55:40.704Z,100203.63
2023-02-17T09:56:47.389Z,100204.41
2023-02-17T09:58:02.407Z,100211.34
2023-02-17T09:59:24.368Z,100217.88
2023-02-17T10:00:35.274Z,100222.75
2023-02-17T10:01:38.355Z,100200.09
2023-02-17T10:02:55.989Z,100221.44
2023-02-17T10:04:14.273Z,100222.31
2023-02-17T10:05:20.262Z,100222.88
2023-02-17T10:06:36.910Z,100220.81
2023-02-17T10:07:46.099Z,100219.88
2023-02-17T10:08:56.808Z,100228.88
2023-02-17T10:10:07.994Z,100215.38
2023-02-17T10:11:31.688Z,100217.84
2023-02-17T10:12:41.219Z,100218.75
2023-02-17T10:13:46.419Z,100221.91
2023-02-17T10:14:57.460Z,100216.16
2023-02-17T10:16:07.038Z,100205.78
2023-02-17T10:17:34.228Z,100220.25
2023-02-17T10:18:41.523Z,100220.34
2023-02-17T10:20:14.862Z,100200.88
2023-02-17T10:21:27.259Z,100213.44
2023-02-17T10:22:31.616Z,100201.34
2023-02-17T10:23:34.995Z,100202.97
2023-02-17T10:24:37.256Z,100195.16
2023-02-17T10:26:10.217Z,100205.47
2023-02-17T10:27:15.327Z,100204.38
2023-02-17T10:28:29.248Z,100200.81
2023-02-17T10:29:41.679Z,100203.81
2023-02-17T10:31:08.495Z,100200.53
2023-02-17T10:32:22.207Z,100200.31
2023-02-17T10:33:37.898Z,100207.03
2023-02-17T10:34:53.326Z,100205.16
2023-02-17T10:36:32.816Z,100197.66
2023-02-17T10:37:51.436Z,100211.59
2023-02-17T10:39:01.783Z,100201.31
2023-02-17T10:40:20.373Z,100196.78
2023-02-17T10:41:32.674Z,100195.59
2023-02-17T10:42:38.045Z,100197.31
2023-02-17T10:43:42.932Z,100190.66
2023-02-17T10:44:45.269Z,100179.34
2023-02-17T10:45:49.824Z,100187.84
2023-02-17T10:46:54.182Z,100186.81
2023-02-17T10:48:03.263Z,100201.09
2023-02-17T10:49:07.221Z,100191.94
2023-02-17T10:50:22.482Z,100184.13
2023-02-17T10:51:31.670Z,100200.47
2023-02-17T10:52:39.173Z,100186.53
2023-02-17T10:53:44.296Z,100206.06
2023-02-17T10:55:22.848Z,100187.84
2023-02-17T10:56:32.515Z,100202.59
2023-02-17T10:57:40.508Z,100199.78
2023-02-17T10:59:06.545Z,100197.25
2023-02-17T11:00:15.973Z,100194.38
2023-02-17T11:01:18.442Z,100201.97
2023-02-17T11:02:44.899Z,100198.13
2023-02-17T11:03:47.239Z,100183.81
2023-02-17T11:04:54.872Z,100196.75
2023-02-17T11:06:01.789Z,100192.72
2023-02-17T11:07:12.011Z,100206.25
2023-02-17T11:08:34.985Z,100185.56
2023-02-17T11:09:39.685Z,100203.63
2023-02-17T11:10:41.887Z,100197.91
2023-02-17T11:11:57.023Z,100199.94
2023-02-17T11:13:02.556Z,100197.63
2023-02-17T11:14:17.670Z,100194.34
2023-02-17T11:15:22.674Z,100203.63
2023-02-17T11:16:33.186Z,100204.50
2023-02-17T11:17:38.619Z,100188.19
2023-02-17T11:18:47.963Z,100209.81
2023-02-17T11:20:04.944Z,100195.69
2023-02-17T11:21:11.190Z,100189.78
2023-02-17T11:22:35.785Z,100195.03
2023-02-17T11:24:01.835Z,100196.22
2023-02-17T11:25:24.413Z,100204.34
2023-02-17T11:26:30.407Z,100190.31
2023-02-17T11:27:32.674Z,100197.09
2023-02-17T11:28:35.218Z,100204.81
2023-02-17T11:29:37.984Z,100193.66
2023-02-17T11:30:49.768Z,100202.31
2023-02-17T11:31:59.273Z,100192.16
2023-02-17T11:33:15.874Z,100176.44
2023-02-17T11:34:23.199Z,100188.53
2023-02-17T11:35:30.323Z,100186.13
2023-02-17T11:36:32.581Z,100197.19
2023-02-17T11:37:42.442Z,100194.03
2023-02-17T11:38:45.894Z,100182.34
2023-02-17T11:39:50.707Z,100184.63
2023-02-17T11:41:04.562Z,100179.31
2023-02-17T11:42:25.085Z,100187.25
2023-02-17T11:43:29.760Z,100182.38
2023-02-17T11:44:31.932Z,100178.69
2023-02-17T11:45:49.894Z,100172.72
2023-02-17T11:47:04.169Z,100190.13
2023-02-17T11:48:44.120Z,100180.19
2023-02-17T11:50:01.830Z,100181.72
2023-02-17T11:51:19.073Z,100187.13
2023-02-17T11:52:45.743Z,100187.56
2023-02-17T11:54:12.657Z,100185.78
2023-02-17T11:55:34.601Z,100192.59
2023-02-17T11:56:43.967Z,100187.22
2023-02-17T11:58:07.327Z,100187.50
2023-02-17T11:59:35.736Z,100194.84
2023-02-17T12:00:43.720Z,100189.13
2023-02-17T12:02:08.897Z,100200.94
2023-02-17T12:03:36.912Z,100194.59
2023-02-17T12:04:48.951Z,100184.63
2023-02-17T12:05:51.136Z,100187.22
2023-02-17T12:07:08.195Z,100190.97
2023-02-17T12:08:22.390Z,100195.13
2023-02-17T12:09:56.345Z,100189.09
2023-02-17T12:11:16.645Z,100186.00
2023-02-17T12:12:46.035Z,100178.38
2023-02-17T12:14:28.073Z,100187.75
2023-02-17T12:16:06.436Z,100166.44
2023-02-17T12:17:19.784Z,100174.34
2023-02-17T12:18:40.469Z,100164.78
2023-02-17T12:20:00.651Z,100182.56
2023-02-17T12:21:14.167Z,100172.31
2023-02-17T12:22:59.038Z,100169.22
2023-02-17T12:24:11.746Z,100167.97
2023-02-17T12:25:29.258Z,100162.50
2023-02-17T12:26:47.837Z,100169.38
2023-02-17T12:27:56.690Z,100175.53
2023-02-17T12:29:21.878Z,100170.09
2023-02-17T12:30:42.140Z,100156.00
2023-02-17T12:32:00.850Z,100162.50
2023-02-17T12:33:11.966Z,100175.47
2023-02-17T12:34:44.690Z,100165.03
2023-02-17T12:35:53.240Z,100170.09
2023-02-17T12:37:00.522Z,100156.78
2023-02-17T12:38:12.161Z,100161.19
2023-02-17T12:39:48.639Z,100176.00
2023-02-17T12:40:58.215Z,100171.56
2023-02-17T12:42:07.425Z,100168.75